NCAR-RAP Real-Time Weather Data

Output produced by METARs form (23 April 2019  08:32 UTC)
found at http://weather.rap.ucar.edu/surface/
 
KRDU 230751Z 00000KT 10SM CLR 09/08 A3011 RMK AO2 SLP194 T00940083
KRDU 230651Z 00000KT 10SM CLR 10/09 A3012 RMK AO2 SLP196 T01000089
KRDU 230551Z 06003KT 10SM CLR 11/08 A3013 RMK AO2 SLP201 T01110083 10189 20106 58001
KRDU 230451Z 00000KT 10SM CLR 12/09 A3013 RMK AO2 SLP202 T01170089 402280061
KRDU 230351Z 00000KT 10SM CLR 12/09 A3013 RMK AO2 SLP203 T01220089
KRDU 230251Z 00000KT 10SM CLR 13/09 A3013 RMK AO2 SLP202 T01330089 51010
KRDU 230151Z 00000KT 10SM CLR 14/09 A3013 RMK AO2 SLP200 T01390089
KRDU 230051Z 00000KT 10SM FEW250 16/09 A3011 RMK AO2 SLP196 T01610094
KRDU 222351Z 00000KT 10SM FEW060 FEW250 18/09 A3010 RMK AO2 SLP192 T01780089 10228 20178 51002
KRDU 222251Z 32004KT 10SM FEW060 FEW250 22/07 A3010 RMK AO2 SLP191 T02170067
KRDU 222051Z 23004KT 10SM FEW060 22/07 A3010 RMK AO2 SLP189 T02220072 56020
KRDU 221951Z 00000KT 10SM FEW060 22/07 A3011 RMK AO2 SLP194 T02220067
KRDU 221851Z VRB06KT 10SM FEW060 22/08 A3013 RMK AO2 SLP202 T02170083
KRDU 221751Z VRB06KT 10SM FEW055 FEW250 21/07 A3016 RMK AO2 SLP210 T02060067 10206 20089 58012
KRDU 221651Z VRB05KT 10SM FEW048 FEW250 19/07 A3018 RMK AO2 SLP217 T01940072
KRDU 221551Z VRB05KT 10SM FEW040 FEW250 18/08 A3019 RMK AO2 SLP222 T01830078
KRDU 221451Z COR VRB05KT 10SM FEW250 17/07 A3019 RMK AO2 SLP222 T01670067 53001
KRDU 221351Z 02005KT 10SM FEW250 15/07 A3019 RMK AO2 SLP223 T01500067
KRDU 221251Z 34005KT 10SM FEW250 13/07 A3018 RMK AO2 SLP220 T01280072
KRDU 221151Z 00000KT 10SM FEW250 09/08 A3019 RMK AO2 SLP221 T00890078 10100 20061 53026
KRDU 221051Z 00000KT 10SM FEW250 07/06 A3016 RMK AO2 SLP212 T00670061